Time;durP1;ratioP1;P1;durP2;ratioP2;P2;SDS_P1;SDS_P2;PMS_P1;PMS_P2;Temp;Humidity;BMP_temperature;BMP_pressure;BME280_temperature;BME280_humidity;BME280_pressure;Samples;Min_cycle;Max_cycle;Signal;HPM_P1;HPM_P2
2021/12/02 00:00:28;;;;;;;12.77;8.27;;;;;;;6.42;81.05;96552.68;2235862;78;21028;-84
2021/12/02 00:06:34;;;;;;;16.80;8.93;;;;;;;6.44;81.18;96541.00;2195723;79;20952;-83
2021/12/02 00:09:34;;;;;;;13.90;8.10;;;;;;;6.46;81.23;96539.26;2237722;78;21034;-83
2021/12/02 00:12:35;;;;;;;17.83;8.53;;;;;;;6.46;81.17;96537.97;2249519;78;21062;-84
2021/12/02 00:15:40;;;;;;;17.03;8.67;;;;;;;6.48;81.14;96532.33;2254514;78;21002;-82
2021/12/02 00:21:46;;;;;;;14.53;8.13;;;;;;;6.52;80.74;96534.88;2204642;79;21115;-83
2021/12/02 00:24:46;;;;;;;13.23;7.90;;;;;;;6.54;80.66;96543.94;2235649;78;21423;-82
2021/12/02 00:27:47;;;;;;;18.30;8.63;;;;;;;6.55;80.69;96554.73;2236552;78;21004;-82
2021/12/02 00:30:48;;;;;;;15.03;8.10;;;;;;;6.55;80.61;96540.03;2233503;78;20988;-84
2021/12/02 00:33:48;;;;;;;15.03;8.20;;;;;;;6.57;80.62;96543.47;2234391;78;20975;-81
2021/12/02 00:36:49;;;;;;;13.23;8.03;;;;;;;6.58;80.86;96535.26;2217158;78;20972;-85
2021/12/02 00:39:49;;;;;;;14.03;7.50;;;;;;;6.59;80.51;96520.13;2235285;78;20936;-84
2021/12/02 00:42:50;;;;;;;13.80;6.90;;;;;;;6.61;80.47;96530.05;2262032;78;21034;-83
2021/12/02 00:45:50;;;;;;;13.50;7.23;;;;;;;6.63;80.70;96536.08;2232056;78;21472;-82
2021/12/02 00:48:51;;;;;;;15.27;7.07;;;;;;;6.65;80.63;96530.00;2256149;78;21387;-81
2021/12/02 00:51:51;;;;;;;12.23;7.20;;;;;;;6.68;80.41;96529.11;2235533;78;20972;-84
2021/12/02 00:54:52;;;;;;;11.77;6.97;;;;;;;6.71;80.41;96529.94;2241266;78;21014;-80
2021/12/02 00:57:52;;;;;;;13.13;6.90;;;;;;;6.74;80.14;96532.94;2241632;78;20983;-84
2021/12/02 01:00:55;;;;;;;13.93;6.70;;;;;;;6.76;80.36;96535.52;2198017;78;21010;-83
2021/12/02 01:03:55;;;;;;;11.40;6.43;;;;;;;6.77;80.06;96535.50;2256889;78;20998;-82
2021/12/02 01:06:56;;;;;;;9.57;6.17;;;;;;;6.79;80.03;96530.30;2226791;78;21040;-80
2021/12/02 01:09:57;;;;;;;11.27;7.03;;;;;;;6.81;79.98;96532.44;2246225;78;21058;-83
2021/12/02 01:12:57;;;;;;;11.83;6.47;;;;;;;6.81;79.70;96524.66;2250436;78;21027;-82
2021/12/02 01:15:58;;;;;;;11.00;6.20;;;;;;;6.82;79.58;96525.95;2245077;78;21020;-82
2021/12/02 01:19:00;;;;;;;9.53;5.83;;;;;;;6.86;80.08;96518.55;2197785;79;21008;-80
2021/12/02 01:22:01;;;;;;;9.17;6.40;;;;;;;6.92;79.05;96521.08;2242001;78;21374;-82
2021/12/02 01:25:01;;;;;;;8.60;5.70;;;;;;;6.91;78.98;96525.84;2226418;78;20991;-80
2021/12/02 01:28:02;;;;;;;8.17;5.70;;;;;;;6.89;78.61;96517.23;2229564;78;21007;-80
2021/12/02 01:31:02;;;;;;;6.97;5.23;;;;;;;6.85;78.72;96514.68;2238564;78;20999;-81
2021/12/02 01:34:05;;;;;;;8.23;5.50;;;;;;;6.80;79.04;96511.28;2236494;78;21026;-82
2021/12/02 01:37:05;;;;;;;7.47;4.60;;;;;;;6.79;78.98;96518.64;2207858;79;21012;-81
2021/12/02 01:40:05;;;;;;;7.17;5.40;;;;;;;6.80;79.11;96511.28;2200188;79;20960;-81
2021/12/02 01:43:06;;;;;;;8.40;5.07;;;;;;;6.82;78.84;96514.27;2210192;78;20964;-81
2021/12/02 01:46:06;;;;;;;8.93;5.20;;;;;;;6.83;78.94;96517.29;2244741;78;21004;-80
2021/12/02 01:49:07;;;;;;;8.27;5.30;;;;;;;6.82;78.36;96517.30;2253211;78;21039;-81
2021/12/02 01:52:07;;;;;;;7.27;4.50;;;;;;;6.86;78.42;96515.10;2243301;78;20990;-80
2021/12/02 01:55:08;;;;;;;6.07;4.93;;;;;;;6.86;78.60;96506.88;2239476;78;21385;-81
2021/12/02 01:58:08;;;;;;;6.27;5.13;;;;;;;6.83;78.46;96515.99;2256276;78;20995;-81
2021/12/02 02:01:09;;;;;;;5.80;4.20;;;;;;;6.78;78.47;96524.26;2256716;78;21028;-82
2021/12/02 02:04:09;;;;;;;8.27;5.00;;;;;;;6.71;78.40;96520.88;2231044;78;21055;-81
2021/12/02 02:07:10;;;;;;;8.23;5.40;;;;;;;6.67;78.79;96515.73;2230966;78;20972;-80
2021/12/02 02:10:10;;;;;;;8.00;4.80;;;;;;;6.62;78.84;96517.07;2254895;78;20987;-80
2021/12/02 02:13:11;;;;;;;7.43;4.30;;;;;;;6.57;78.77;96513.66;2237096;78;21390;-82
2021/12/02 02:16:11;;;;;;;7.07;5.10;;;;;;;6.53;79.07;96515.86;2256055;78;21066;-80
2021/12/02 02:19:13;;;;;;;7.43;4.73;;;;;;;6.49;79.04;96512.02;2255029;78;20967;-80
2021/12/02 02:22:19;;;;;;;8.03;4.93;;;;;;;6.44;79.09;96519.84;2241714;78;20976;-81
2021/12/02 02:25:18;;;;;;;5.83;3.90;;;;;;;6.41;79.25;96521.59;2247688;78;21358;-80
2021/12/02 02:28:18;;;;;;;6.90;5.10;;;;;;;6.35;79.32;96513.44;2236210;78;21098;-81
2021/12/02 02:31:19;;;;;;;6.00;4.53;;;;;;;6.31;79.48;96517.79;2225942;78;21006;-80
2021/12/02 02:34:19;;;;;;;6.93;4.70;;;;;;;6.24;79.55;96517.42;2213445;78;20992;-80
2021/12/02 02:37:20;;;;;;;7.10;4.80;;;;;;;6.19;79.62;96519.63;2231060;78;20990;-80
2021/12/02 02:40:21;;;;;;;7.07;4.63;;;;;;;6.15;79.67;96519.23;2218360;78;20979;-81
2021/12/02 02:43:23;;;;;;;7.43;4.70;;;;;;;6.11;79.72;96516.23;2229792;78;20998;-81
2021/12/02 02:46:24;;;;;;;6.17;4.17;;;;;;;6.05;79.85;96517.11;2231261;78;21153;-80
2021/12/02 02:49:24;;;;;;;6.63;4.27;;;;;;;6.02;79.92;96523.61;2254370;78;20986;-80
2021/12/02 02:52:25;;;;;;;8.27;4.90;;;;;;;5.99;80.00;96521.90;2248078;78;20944;-81
2021/12/02 02:55:26;;;;;;;7.10;4.50;;;;;;;5.99;79.99;96519.75;2243364;78;20972;-81
2021/12/02 02:58:33;;;;;;;6.10;4.07;;;;;;;6.01;80.01;96529.66;2253403;78;20951;-80
2021/12/02 03:04:58;;;;;;;7.00;4.00;;;;;;;5.97;80.09;96527.96;2213510;78;21027;-80
2021/12/02 03:07:58;;;;;;;7.07;4.40;;;;;;;5.97;80.12;96527.53;2207832;78;21467;-80
2021/12/02 03:10:58;;;;;;;5.47;4.07;;;;;;;5.97;80.19;96529.26;2250898;78;21004;-81
2021/12/02 03:14:07;;;;;;;5.57;4.97;;;;;;;5.97;80.06;96523.64;2200645;79;21024;-82
2021/12/02 03:17:01;;;;;;;9.10;4.60;;;;;;;6.00;80.23;96525.34;2199050;79;21048;-83
2021/12/02 03:20:01;;;;;;;6.60;3.83;;;;;;;6.01;80.06;96521.45;2232739;78;20990;-82
2021/12/02 03:23:02;;;;;;;4.90;4.10;;;;;;;6.02;79.83;96529.65;2228781;78;21327;-82
2021/12/02 03:26:02;;;;;;;5.63;3.33;;;;;;;6.05;79.76;96531.35;2243209;78;20979;-81
2021/12/02 03:29:03;;;;;;;5.03;3.90;;;;;;;6.04;79.69;96533.08;2248907;78;20970;-81
2021/12/02 03:32:03;;;;;;;5.47;3.63;;;;;;;6.02;79.76;96536.12;2220837;78;20996;-81
2021/12/02 03:35:04;;;;;;;4.67;3.83;;;;;;;6.04;79.44;96527.05;2235008;79;20968;-82
2021/12/02 03:38:04;;;;;;;6.83;4.17;;;;;;;6.09;79.58;96530.49;2241791;78;20960;-80
2021/12/02 03:41:05;;;;;;;5.50;3.80;;;;;;;6.09;79.57;96525.75;2230721;79;21012;-81
2021/12/02 03:44:05;;;;;;;5.43;3.63;;;;;;;6.08;79.63;96537.84;2243765;78;20991;-82
2021/12/02 03:47:06;;;;;;;5.50;4.17;;;;;;;6.10;79.53;96542.58;2248039;78;21019;-80
2021/12/02 03:50:06;;;;;;;4.83;3.77;;;;;;;6.10;79.43;96544.30;2201654;79;21008;-81
2021/12/02 03:53:07;;;;;;;3.93;3.53;;;;;;;6.12;79.48;96543.86;2241893;78;20987;-80
2021/12/02 03:56:07;;;;;;;4.20;3.30;;;;;;;6.12;79.57;96544.72;2257276;78;20931;-80
2021/12/02 03:59:08;;;;;;;4.80;3.33;;;;;;;6.12;79.12;96533.06;2232836;78;20983;-81
2021/12/02 04:02:09;;;;;;;4.50;3.23;;;;;;;6.14;79.27;96547.30;2243780;78;20991;-80
2021/12/02 04:05:09;;;;;;;4.23;3.37;;;;;;;6.12;79.21;96552.48;2246627;78;21015;-81
2021/12/02 04:08:11;;;;;;;9.00;3.00;;;;;;;6.11;79.32;96557.24;2242753;78;21038;-82
2021/12/02 04:11:19;;;;;;;4.07;2.87;;;;;;;6.14;79.10;96559.81;2230937;78;21589;-81
2021/12/02 04:17:39;;;;;;;4.07;3.00;;;;;;;6.27;78.80;96556.69;2204680;78;21056;-81
2021/12/02 04:20:25;;;;;;;5.97;2.87;;;;;;;6.29;78.47;96562.28;2238724;78;21035;-80
2021/12/02 04:23:25;;;;;;;3.77;3.13;;;;;;;6.30;78.41;96569.19;2251787;78;21360;-81
2021/12/02 04:26:26;;;;;;;3.57;3.00;;;;;;;6.34;78.25;96570.88;2230372;78;21032;-81
2021/12/02 04:29:27;;;;;;;5.37;2.90;;;;;;;6.37;78.42;96576.04;2247610;78;21022;-80
2021/12/02 04:32:28;;;;;;;3.27;2.70;;;;;;;6.42;78.44;96578.59;2246698;78;21428;-81
2021/12/02 04:35:28;;;;;;;4.00;2.87;;;;;;;6.47;78.23;96577.27;2241899;78;20967;-82
2021/12/02 04:38:29;;;;;;;3.57;3.27;;;;;;;6.49;78.20;96587.18;2229473;78;20992;-82
2021/12/02 04:41:29;;;;;;;3.17;2.70;;;;;;;6.46;78.11;96582.88;2243462;78;21370;-81
2021/12/02 04:44:30;;;;;;;4.13;3.10;;;;;;;6.42;77.67;96581.19;2247348;78;21037;-81
2021/12/02 04:47:31;;;;;;;4.83;3.23;;;;;;;6.38;77.71;96587.27;2252931;78;21065;-80
2021/12/02 04:50:31;;;;;;;3.87;3.13;;;;;;;6.30;77.61;96579.98;2256175;78;20983;-82
2021/12/02 04:53:31;;;;;;;3.60;3.20;;;;;;;6.27;77.76;96587.34;2244187;78;21430;-81
2021/12/02 04:56:32;;;;;;;7.33;3.07;;;;;;;6.21;77.59;96587.39;2237803;78;21030;-81
2021/12/02 04:59:33;;;;;;;4.07;3.27;;;;;;;6.13;77.79;96589.17;2259183;78;21026;-80
2021/12/02 05:02:33;;;;;;;4.23;3.10;;;;;;;6.05;77.83;96592.22;2223255;78;20976;-81
2021/12/02 05:05:34;;;;;;;4.30;2.93;;;;;;;6.01;77.93;96591.38;2247651;79;20952;-81
2021/12/02 05:08:34;;;;;;;4.60;2.93;;;;;;;5.96;77.97;96597.45;2234043;78;21468;-81
2021/12/02 05:11:35;;;;;;;4.40;3.30;;;;;;;5.90;77.94;96604.82;2220832;78;21008;-81
2021/12/02 05:14:35;;;;;;;3.43;3.10;;;;;;;5.86;78.16;96607.41;2232077;78;20999;-81
2021/12/02 05:17:36;;;;;;;3.80;3.23;;;;;;;5.82;78.03;96600.52;2248454;78;21078;-81
2021/12/02 05:20:37;;;;;;;4.07;2.73;;;;;;;5.80;78.08;96590.61;2242627;78;20943;-80
2021/12/02 05:23:37;;;;;;;6.70;2.50;;;;;;;5.80;77.94;96603.55;2242265;78;21031;-81
2021/12/02 05:26:38;;;;;;;3.43;2.80;;;;;;;5.82;77.85;96603.97;2250228;78;21003;-81
2021/12/02 05:29:38;;;;;;;3.57;2.63;;;;;;;5.84;77.77;96608.70;2232394;78;21363;-80
2021/12/02 05:32:39;;;;;;;3.97;2.73;;;;;;;5.83;77.59;96600.52;2236276;78;21019;-79
2021/12/02 05:35:40;;;;;;;4.83;3.10;;;;;;;5.87;77.60;96600.06;2250424;78;20983;-82
2021/12/02 05:38:40;;;;;;;4.07;2.80;;;;;;;5.88;77.57;96600.48;2216737;78;21042;-81
2021/12/02 05:41:41;;;;;;;4.77;3.30;;;;;;;5.88;77.48;96601.78;2231817;78;20952;-81
2021/12/02 05:44:43;;;;;;;3.80;3.17;;;;;;;5.83;77.45;96599.66;2250359;78;21291;-82
2021/12/02 05:47:44;;;;;;;4.33;3.00;;;;;;;5.78;77.34;96599.67;2245629;78;21058;-81
2021/12/02 05:50:44;;;;;;;4.10;3.07;;;;;;;5.76;77.51;96605.30;2225330;78;21012;-81
2021/12/02 05:53:45;;;;;;;4.07;2.73;;;;;;;5.71;77.22;96609.20;2238034;78;20971;-81
2021/12/02 05:56:45;;;;;;;4.10;2.57;;;;;;;5.66;77.51;96616.13;2229197;78;21407;-82
2021/12/02 05:59:46;;;;;;;5.77;3.50;;;;;;;5.63;77.57;96621.32;2237430;78;20967;-83
2021/12/02 06:02:47;;;;;;;5.73;3.87;;;;;;;5.65;77.69;96630.38;2222021;78;20969;-79
2021/12/02 06:05:48;;;;;;;4.20;2.93;;;;;;;5.63;77.76;96630.38;2232083;78;20923;-80
2021/12/02 06:08:48;;;;;;;5.40;3.13;;;;;;;5.59;77.55;96636.43;2230248;78;21379;-79
2021/12/02 06:11:49;;;;;;;6.23;5.53;;;;;;;5.56;77.62;96642.91;2221695;78;20996;-78
2021/12/02 06:14:49;;;;;;;5.63;3.07;;;;;;;5.58;77.53;96641.61;2246923;78;20972;-78
2021/12/02 06:17:50;;;;;;;3.53;2.60;;;;;;;5.56;77.16;96644.20;2229707;78;21008;-79
2021/12/02 06:20:54;;;;;;;4.33;2.60;;;;;;;5.54;76.99;96647.23;2235627;78;21367;-78
2021/12/02 06:23:56;;;;;;;3.83;2.58;;;;;;;5.52;76.75;96659.75;2203997;79;21424;-79
2021/12/02 06:26:57;;;;;;;4.17;2.70;;;;;;;5.51;76.28;96655.01;2230977;78;20975;-79
2021/12/02 06:29:57;;;;;;;4.47;2.60;;;;;;;5.50;76.66;96662.78;2253689;78;21026;-78
2021/12/02 06:32:58;;;;;;;3.83;2.40;;;;;;;5.48;76.30;96665.37;2253173;78;20998;-79
2021/12/02 06:35:59;;;;;;;5.50;2.70;;;;;;;5.47;76.34;96670.11;2237347;78;21015;-80
2021/12/02 06:39:00;;;;;;;5.60;3.03;;;;;;;5.43;76.23;96668.41;2240053;78;20947;-79
2021/12/02 06:42:00;;;;;;;3.83;2.33;;;;;;;5.38;76.63;96668.84;2257290;78;20967;-79
2021/12/02 06:45:01;;;;;;;4.47;2.90;;;;;;;5.36;76.56;96682.22;2242266;78;21431;-79
2021/12/02 06:48:04;;;;;;;7.77;4.00;;;;;;;5.32;76.75;96684.38;2235894;78;20976;-77
2021/12/02 06:51:04;;;;;;;6.63;3.90;;;;;;;5.31;76.93;96678.78;2195391;78;21316;-79
2021/12/02 06:54:05;;;;;;;6.37;4.07;;;;;;;5.32;76.84;96688.27;2235885;78;20968;-79
2021/12/02 06:57:06;;;;;;;5.63;3.27;;;;;;;5.34;76.51;96699.47;2253784;78;21011;-80
2021/12/02 07:00:08;;;;;;;6.23;3.53;;;;;;;5.35;76.74;96703.34;2233183;78;21607;-79
2021/12/02 07:03:08;;;;;;;4.80;3.43;;;;;;;5.41;76.55;96710.23;2240881;78;21051;-77
2021/12/02 07:06:09;;;;;;;9.33;3.67;;;;;;;5.46;76.52;96712.81;2242734;78;20948;-79
2021/12/02 07:09:09;;;;;;;8.43;3.77;;;;;;;5.51;76.76;96727.47;2243982;78;21039;-79
2021/12/02 07:12:10;;;;;;;6.33;3.80;;;;;;;5.59;76.67;96735.21;2224902;78;20964;-79
2021/12/02 07:15:17;;;;;;;8.37;4.20;;;;;;;5.69;76.76;96730.00;2236120;78;21387;-79
2021/12/02 07:18:16;;;;;;;6.43;4.00;;;;;;;5.80;76.41;96736.88;2233592;78;21059;-79
2021/12/02 07:21:16;;;;;;;6.37;3.90;;;;;;;5.90;76.17;96731.70;2242785;78;20986;-79
2021/12/02 07:24:17;;;;;;;5.33;3.67;;;;;;;6.02;75.83;96740.71;2230213;78;21381;-79
2021/12/02 07:27:18;;;;;;;7.57;3.83;;;;;;;6.13;75.79;96734.23;2240530;78;21006;-78
2021/12/02 07:30:18;;;;;;;6.70;4.30;;;;;;;6.22;75.66;96732.03;2252092;78;21371;-77
2021/12/02 07:33:19;;;;;;;7.83;5.03;;;;;;;6.30;74.97;96736.30;2242716;78;20976;-79
2021/12/02 07:36:19;;;;;;;8.77;4.30;;;;;;;6.45;74.88;96734.50;2235926;78;21090;-78
2021/12/02 07:39:20;;;;;;;7.40;4.67;;;;;;;6.59;74.25;96739.16;2244101;78;20951;-78
2021/12/02 07:42:20;;;;;;;6.70;4.83;;;;;;;6.69;74.37;96746.02;2213902;78;21023;-79
2021/12/02 07:45:21;;;;;;;8.10;4.50;;;;;;;6.82;73.59;96741.61;2230339;78;21031;-78
2021/12/02 07:48:21;;;;;;;10.17;5.63;;;;;;;6.91;73.39;96763.59;2221404;78;21011;-78
2021/12/02 07:51:22;;;;;;;7.53;4.40;;;;;;;6.97;73.61;96763.58;2252399;78;20944;-79
2021/12/02 07:54:22;;;;;;;5.83;3.97;;;;;;;7.05;72.40;96764.81;2245006;78;20955;-80
2021/12/02 07:57:23;;;;;;;7.27;4.87;;;;;;;7.09;72.47;96767.81;2262966;78;21598;-78
2021/12/02 08:00:23;;;;;;;9.20;5.33;;;;;;;7.13;71.57;96762.59;2245212;78;20975;-79
2021/12/02 08:03:26;;;;;;;6.30;3.87;;;;;;;7.20;71.56;96773.34;2235037;78;21003;-79
2021/12/02 08:06:28;;;;;;;7.47;3.73;;;;;;;7.30;70.52;96781.48;2249196;78;21026;-82
2021/12/02 08:09:28;;;;;;;8.17;5.97;;;;;;;7.35;70.21;96782.30;2208824;78;20995;-78
2021/12/02 08:12:29;;;;;;;7.07;4.17;;;;;;;7.40;68.93;96780.96;2197258;79;20991;-79
2021/12/02 08:15:30;;;;;;;4.33;3.07;;;;;;;7.44;68.98;96786.55;2222519;78;20980;-79
2021/12/02 08:18:30;;;;;;;4.40;3.03;;;;;;;7.41;67.69;96788.31;2227746;78;21063;-82
2021/12/02 08:21:31;;;;;;;6.73;2.70;;;;;;;7.34;68.54;96792.26;2240799;78;20987;-80
2021/12/02 08:24:31;;;;;;;5.47;3.27;;;;;;;7.28;67.89;96797.50;2221995;78;21423;-79
2021/12/02 08:27:32;;;;;;;13.43;3.80;;;;;;;7.26;68.04;96800.98;2234362;78;20980;-79
2021/12/02 08:30:37;;;;;;;6.10;3.57;;;;;;;7.24;67.03;96803.58;2229542;78;21375;-79
2021/12/02 08:33:38;;;;;;;4.90;2.67;;;;;;;7.24;68.65;96804.02;2241947;78;20991;-80
2021/12/02 08:36:45;;;;;;;3.43;2.77;;;;;;;7.20;68.04;96808.81;2234707;78;21683;-79
2021/12/02 08:39:45;;;;;;;4.50;3.00;;;;;;;7.15;67.30;96805.38;2230808;78;21087;-79
2021/12/02 08:42:46;;;;;;;5.43;2.50;;;;;;;7.10;67.64;96810.61;2228056;78;21082;-79
2021/12/02 08:45:47;;;;;;;4.00;2.57;;;;;;;7.09;66.44;96812.77;2253836;78;20959;-80
2021/12/02 08:48:50;;;;;;;2.60;2.00;;;;;;;7.14;67.41;96820.53;2234666;78;21003;-79
2021/12/02 08:51:51;;;;;;;4.27;2.83;;;;;;;7.17;67.60;96822.66;2225938;78;21008;-80
2021/12/02 08:54:51;;;;;;;4.53;2.73;;;;;;;7.17;67.99;96834.77;2244206;78;21110;-78
2021/12/02 08:57:52;;;;;;;4.23;2.53;;;;;;;7.23;68.44;96830.84;2226587;78;21421;-79
2021/12/02 09:00:53;;;;;;;7.20;3.40;;;;;;;7.29;67.81;96832.09;2255265;78;20971;-80
2021/12/02 09:03:53;;;;;;;3.47;2.90;;;;;;;7.40;68.56;96828.98;2246583;78;21038;-80
2021/12/02 09:06:54;;;;;;;6.07;2.57;;;;;;;7.49;67.80;96835.39;2231798;78;20999;-78
2021/12/02 09:09:54;;;;;;;2.67;2.37;;;;;;;7.49;68.05;96831.50;2243302;78;21401;-79
2021/12/02 09:12:55;;;;;;;3.57;2.40;;;;;;;7.62;67.66;96825.77;2237636;78;20976;-78
2021/12/02 09:15:55;;;;;;;4.37;3.13;;;;;;;7.75;68.25;96831.72;2229518;78;20948;-78
2021/12/02 09:18:56;;;;;;;3.37;2.63;;;;;;;7.84;68.77;96829.06;2246310;78;21670;-77
2021/12/02 09:21:58;;;;;;;4.43;2.73;;;;;;;7.87;68.23;96825.14;2209671;79;20963;-76
2021/12/02 09:24:59;;;;;;;3.57;2.53;;;;;;;7.81;67.74;96823.46;2207222;78;21462;-76
2021/12/02 09:31:02;;;;;;;7.30;2.80;;;;;;;7.42;66.60;96823.78;2197615;78;20951;-77
2021/12/02 09:34:03;;;;;;;4.77;2.60;;;;;;;7.42;66.60;96823.78;2216510;78;20964;-79
2021/12/02 09:37:03;;;;;;;3.97;2.67;;;;;;;7.33;66.47;96842.88;2234577;78;20960;-79
2021/12/02 09:40:04;;;;;;;3.70;2.37;;;;;;;7.26;67.24;96845.95;2239393;78;21010;-79
2021/12/02 09:43:05;;;;;;;5.73;2.47;;;;;;;7.21;66.20;96844.27;2210712;78;21474;-80
2021/12/02 09:46:05;;;;;;;3.97;2.50;;;;;;;7.20;67.54;96850.33;2225524;78;20988;-79
2021/12/02 09:49:07;;;;;;;3.80;2.43;;;;;;;7.20;67.54;96850.33;2219569;78;21000;-78
2021/12/02 09:52:12;;;;;;;2.83;2.20;;;;;;;7.28;66.46;96851.13;2233730;78;21101;-81
2021/12/02 09:55:20;;;;;;;3.50;2.40;;;;;;;7.32;66.86;96851.53;2234270;78;21000;-79
2021/12/02 09:58:20;;;;;;;3.33;2.47;;;;;;;7.48;66.42;96849.69;2247574;78;20959;-79
2021/12/02 10:01:17;;;;;;;9.87;4.03;;;;;;;7.48;66.42;96849.69;2228668;78;21449;-78
2021/12/02 10:04:20;;;;;;;3.80;2.60;;;;;;;7.53;64.17;96857.86;2233990;78;21020;-79
2021/12/02 10:10:32;;;;;;;7.77;3.30;;;;;;;7.68;64.63;96846.05;2203484;78;21055;-78
2021/12/02 10:13:34;;;;;;;7.20;4.77;;;;;;;7.68;63.19;96829.17;2260713;78;20955;-79
2021/12/02 10:16:36;;;;;;;4.47;2.90;;;;;;;7.76;63.98;96841.23;2229445;78;20996;-79
2021/12/02 10:19:36;;;;;;;5.87;3.40;;;;;;;7.82;62.41;96855.48;2235593;78;21415;-78
2021/12/02 10:22:36;;;;;;;8.93;3.47;;;;;;;7.87;61.83;96839.42;2230754;78;20987;-78
2021/12/02 10:25:37;;;;;;;3.73;2.50;;;;;;;8.00;62.76;96852.72;2234938;78;21369;-79
2021/12/02 10:28:41;;;;;;;6.80;2.20;;;;;;;8.05;60.89;96849.64;2253484;78;21888;-78
2021/12/02 10:31:43;;;;;;;5.93;3.50;;;;;;;8.17;61.66;96853.84;2244421;78;21006;-79
2021/12/02 10:34:42;;;;;;;5.40;2.40;;;;;;;8.15;60.42;96855.16;2242031;78;21078;-79
2021/12/02 10:37:43;;;;;;;3.43;2.43;;;;;;;8.11;57.47;96870.80;2262712;78;20959;-79
2021/12/02 10:40:43;;;;;;;3.57;1.90;;;;;;;8.04;58.10;96844.02;2255929;78;21019;-79
2021/12/02 10:43:44;;;;;;;2.40;1.70;;;;;;;7.96;56.95;96847.99;2233608;78;21363;-79
2021/12/02 10:46:44;;;;;;;4.77;2.50;;;;;;;7.91;56.80;96860.16;2238892;78;20976;-78
2021/12/02 10:49:45;;;;;;;7.20;1.93;;;;;;;7.92;57.22;96867.52;2244166;78;20999;-79
2021/12/02 10:52:45;;;;;;;4.03;2.00;;;;;;;7.93;56.55;96847.16;2242909;78;21018;-78
2021/12/02 10:55:46;;;;;;;8.90;2.13;;;;;;;7.90;56.76;96857.58;2245252;78;20924;-79
2021/12/02 10:58:46;;;;;;;2.33;1.80;;;;;;;7.90;56.64;96863.63;2210319;78;20979;-78
2021/12/02 11:01:47;;;;;;;5.03;2.50;;;;;;;7.89;55.53;96868.84;2228446;78;21394;-80
2021/12/02 11:04:48;;;;;;;8.63;2.33;;;;;;;7.87;56.42;96870.16;2234664;78;20988;-80
2021/12/02 11:07:49;;;;;;;3.80;1.60;;;;;;;7.91;57.05;96865.36;2239473;78;20999;-78
2021/12/02 11:10:49;;;;;;;4.13;1.40;;;;;;;7.95;55.66;96863.16;2198115;79;20937;-79
2021/12/02 11:13:50;;;;;;;4.27;2.03;;;;;;;7.97;56.70;96867.03;2235778;78;20968;-79
2021/12/02 11:16:50;;;;;;;2.13;1.70;;;;;;;7.91;54.81;96870.99;2244598;78;21390;-80
2021/12/02 11:19:51;;;;;;;3.67;1.87;;;;;;;7.92;56.01;96870.12;2236328;78;21040;-77
2021/12/02 11:22:51;;;;;;;4.70;1.60;;;;;;;7.91;55.56;96877.05;2229450;78;21451;-77
2021/12/02 11:25:52;;;;;;;5.00;1.97;;;;;;;7.93;54.46;96880.49;2235565;78;20971;-78
2021/12/02 11:28:52;;;;;;;7.43;3.40;;;;;;;7.99;56.10;96884.77;2236238;78;21007;-78
2021/12/02 11:31:53;;;;;;;5.00;2.50;;;;;;;8.07;55.27;96891.20;2221282;78;21026;-77
2021/12/02 11:34:53;;;;;;;3.40;2.10;;;;;;;8.11;54.60;96889.85;2210350;78;20980;-77
2021/12/02 11:37:54;;;;;;;4.20;2.37;;;;;;;8.05;54.35;96886.02;2224730;78;21003;-76
2021/12/02 11:40:55;;;;;;;3.37;2.20;;;;;;;7.95;54.69;96886.97;2235492;78;20992;-75
2021/12/02 11:43:56;;;;;;;5.60;2.50;;;;;;;7.87;53.67;96898.73;2216974;79;20967;-76
2021/12/02 11:46:56;;;;;;;7.80;3.20;;;;;;;7.88;55.40;96903.05;2223409;78;21399;-77
2021/12/02 11:49:57;;;;;;;5.73;2.70;;;;;;;7.95;56.56;96898.66;2238186;79;21011;-77
2021/12/02 11:52:57;;;;;;;4.70;2.60;;;;;;;8.02;55.63;96903.37;2226278;78;20979;-76
2021/12/02 11:55:58;;;;;;;7.27;3.23;;;;;;;8.03;54.92;96902.05;2250129;78;21426;-76
2021/12/02 11:58:59;;;;;;;5.57;2.80;;;;;;;8.06;55.35;96906.36;2242686;78;21382;-77
2021/12/02 12:01:59;;;;;;;4.73;2.10;;;;;;;8.02;53.30;96913.33;2243116;78;21006;-77
2021/12/02 12:05:00;;;;;;;4.10;1.93;;;;;;;7.97;53.61;96907.30;2222774;78;20951;-76
2021/12/02 12:08:00;;;;;;;5.90;3.90;;;;;;;7.91;53.39;96904.77;2214208;79;21438;-78
2021/12/02 12:11:01;;;;;;;7.37;3.80;;;;;;;7.93;53.57;96918.60;2225871;78;21398;-77
2021/12/02 12:14:02;;;;;;;4.40;2.77;;;;;;;7.91;52.51;96930.74;2228806;79;20966;-78
2021/12/02 12:17:02;;;;;;;5.17;1.93;;;;;;;8.52;57.69;96931.50;2237485;78;21336;-80
2021/12/02 12:20:03;;;;;;;13.33;3.00;;;;;;;8.75;61.14;96926.94;2245837;78;21004;-78
2021/12/02 12:23:03;;;;;;;3.23;1.80;;;;;;;10.06;54.71;96922.50;2229306;78;20967;-78
2021/12/02 12:26:04;;;;;;;4.63;1.90;;;;;;;9.47;49.42;96927.30;2224545;78;21043;-77
2021/12/02 12:29:08;;;;;;;6.00;2.63;;;;;;;8.78;52.38;96927.34;2242349;78;21389;-77
2021/12/02 12:38:29;;;;;;;7.00;3.00;;;;;;;7.83;54.73;96924.31;2209501;78;21084;-78
2021/12/02 12:41:30;;;;;;;10.20;4.07;;;;;;;7.48;53.81;96941.41;2245574;78;21072;-79
2021/12/02 12:44:30;;;;;;;8.97;3.80;;;;;;;7.48;53.81;96941.41;2254807;78;21009;-81
2021/12/02 12:47:31;;;;;;;9.43;3.90;;;;;;;7.45;53.74;96947.05;2237298;78;20956;-79
2021/12/02 12:50:31;;;;;;;11.43;3.07;;;;;;;7.32;54.64;96938.48;2231780;78;21011;-81
2021/12/02 12:53:32;;;;;;;51.80;10.80;;;;;;;7.20;54.78;96947.63;2220675;78;21035;-80
2021/12/02 12:56:33;;;;;;;13.13;3.30;;;;;;;7.28;60.32;96936.77;2241664;78;20952;-80
2021/12/02 12:59:45;;;;;;;8.43;4.23;;;;;;;8.93;53.07;96934.52;2233098;78;21032;-80
2021/12/02 13:02:45;;;;;;;8.87;4.60;;;;;;;8.23;52.19;96943.45;2233951;78;20968;-81
2021/12/02 13:05:49;;;;;;;8.70;4.70;;;;;;;7.71;54.43;96949.48;2243344;78;20990;-80
2021/12/02 13:08:48;;;;;;;14.73;4.60;;;;;;;7.37;54.79;96946.23;2223682;78;21031;-80
2021/12/02 13:11:49;;;;;;;6.03;3.20;;;;;;;7.11;55.17;96951.56;2241422;78;20947;-79
2021/12/02 13:14:50;;;;;;;8.73;4.20;;;;;;;6.88;54.52;96948.61;2232032;78;21636;-80
2021/12/02 13:17:50;;;;;;;11.00;5.23;;;;;;;6.73;55.63;96949.09;2251336;78;20951;-81
2021/12/02 13:20:51;;;;;;;11.20;6.20;;;;;;;6.64;56.28;96948.26;2232087;78;20995;-79
2021/12/02 13:23:51;;;;;;;16.83;7.53;;;;;;;6.55;56.38;96950.02;2248428;78;21006;-80
2021/12/02 13:26:52;;;;;;;17.97;8.27;;;;;;;6.46;56.49;96948.30;2243837;78;20963;-78
2021/12/02 13:29:53;;;;;;;15.03;7.10;;;;;;;6.38;56.54;96948.76;2240472;78;21351;-78
2021/12/02 13:32:54;;;;;;;15.20;5.50;;;;;;;6.31;57.00;96955.68;2230878;78;20964;-79
2021/12/02 13:35:54;;;;;;;7.87;4.80;;;;;;;6.25;57.92;96956.12;2245763;78;20939;-79
2021/12/02 13:38:55;;;;;;;11.67;4.93;;;;;;;6.19;58.09;96959.58;2247782;78;21014;-80
2021/12/02 13:41:56;;;;;;;13.47;5.03;;;;;;;6.15;58.52;96954.41;2250164;78;21350;-79
2021/12/02 13:44:56;;;;;;;13.17;5.80;;;;;;;6.11;58.57;96957.86;2236012;78;21020;-80
2021/12/02 13:47:57;;;;;;;11.93;6.70;;;;;;;6.05;59.04;96964.73;2243273;78;21007;-82
2021/12/02 13:50:57;;;;;;;10.87;6.47;;;;;;;5.99;59.28;96963.88;2232287;78;20987;-80
2021/12/02 13:53:58;;;;;;;10.10;5.30;;;;;;;5.93;59.57;96963.88;2236472;78;20961;-81
2021/12/02 13:57:00;;;;;;;11.30;5.30;;;;;;;5.88;59.66;96974.64;2224710;78;20952;-81
2021/12/02 14:00:00;;;;;;;7.83;4.43;;;;;;;5.83;60.01;96971.19;2244816;78;21093;-80
2021/12/02 14:03:01;;;;;;;10.37;5.23;;;;;;;5.75;60.24;96977.22;2221852;78;21403;-77
2021/12/02 14:06:02;;;;;;;23.30;6.67;;;;;;;5.70;60.68;96984.12;2226290;78;20940;-80
2021/12/02 14:09:03;;;;;;;8.67;5.23;;;;;;;5.64;60.80;96980.66;2242043;78;20975;-82
2021/12/02 14:12:03;;;;;;;12.03;5.53;;;;;;;5.57;61.04;96981.08;2252365;78;20980;-80
2021/12/02 14:15:04;;;;;;;9.03;5.80;;;;;;;5.52;61.24;96985.81;2198182;79;22005;-82
2021/12/02 14:18:05;;;;;;;14.03;4.63;;;;;;;5.47;61.40;96987.09;2230574;78;21024;-81
2021/12/02 14:21:05;;;;;;;11.53;4.43;;;;;;;5.40;61.74;96987.94;2252350;78;20986;-82
2021/12/02 14:24:06;;;;;;;14.80;5.90;;;;;;;5.32;61.82;96996.98;2236671;78;20955;-80
2021/12/02 14:27:06;;;;;;;8.33;5.03;;;;;;;5.26;62.02;97003.86;2233839;78;21665;-81
2021/12/02 14:30:07;;;;;;;11.53;5.50;;;;;;;5.18;62.31;97003.80;2243999;78;21679;-80
2021/12/02 14:33:07;;;;;;;16.27;6.90;;;;;;;5.11;62.54;97014.55;2252864;78;20964;-81
2021/12/02 14:36:08;;;;;;;18.43;7.07;;;;;;;5.04;62.66;97019.27;2232355;78;20988;-79
2021/12/02 14:39:09;;;;;;;23.33;8.93;;;;;;;5.00;62.88;97023.98;2210408;78;20940;-80
2021/12/02 14:42:10;;;;;;;32.63;12.37;;;;;;;4.92;63.19;97015.33;2236228;78;21031;-80